To NAV CANADA Home Page Login to a new session Search on AWWS site Feedback and Comments Disclaimer Vers la page française équivalente Tips FAQ What's new on the site To the Forecasts and Observations / NOTAM section To "File a Flight Plan" website Publications and other links Update of the User's profile FIC Telephone Numbers My Weather Data Folder Route Weather Data Regional Weather Data Local Weather Data To the Forecasts and Observations / NOTAM section
Request Generated 12/04/2016 at 22:24:27 UTC . Weather information available at that time is displayed.

METAR/TAF

NORTH BATTLEFORD/SK    (show WxCam)

METAR CYQW 042200Z AUTO 25009KT 9SM CLR M02/M08 A2957 RMK SLP049=
METAR CYQW 042100Z AUTO 25010KT 9SM CLR M02/M09 A2957 RMK SLP049=
METAR CYQW 042000Z AUTO 27010G15KT 9SM BKN120 M01/M09 A2958 RMK
SLP048=

TAF CYQW 041738Z 0418/0506 26006KT P6SM FEW120 SCT220
FM050300 32010KT P6SM SCT020
RMK FCST BASED ON AUTO OBS. NXT FCST BY 050000Z=
Your time UTC time
Weather data provided by Environment Canada and NAV CANADA